createdAt,value
2023-03-21T00:00:23.897Z,100.00
2023-03-21T00:02:50.409Z,100.00
2023-03-21T00:05:17.122Z,100.00
2023-03-21T00:07:43.703Z,100.00
2023-03-21T00:10:16.711Z,100.00
2023-03-21T00:12:44.854Z,100.00
2023-03-21T00:15:12.804Z,100.00
2023-03-21T00:17:39.660Z,100.00
2023-03-21T00:20:15.110Z,100.00
2023-03-21T00:22:42.029Z,100.00
2023-03-21T00:25:10.644Z,100.00
2023-03-21T00:27:56.807Z,100.00
2023-03-21T00:30:24.173Z,100.00
2023-03-21T00:32:56.436Z,100.00
2023-03-21T00:35:54.007Z,100.00
2023-03-21T00:38:11.160Z,100.00
2023-03-21T00:40:43.761Z,100.00
2023-03-21T00:43:19.445Z,100.00
2023-03-21T00:45:46.608Z,100.00
2023-03-21T00:48:13.766Z,100.00
2023-03-21T00:50:40.906Z,100.00
2023-03-21T00:53:07.551Z,100.00
2023-03-21T00:55:34.386Z,100.00
2023-03-21T00:58:02.544Z,100.00
2023-03-21T01:00:29.821Z,100.00
2023-03-21T01:03:02.873Z,100.00
2023-03-21T01:05:52.681Z,100.00
2023-03-21T01:08:28.001Z,100.00
2023-03-21T01:10:56.742Z,100.00
2023-03-21T01:13:25.529Z,100.00
2023-03-21T01:15:55.777Z,100.00
2023-03-21T01:18:26.920Z,100.00
2023-03-21T01:20:54.787Z,100.00
2023-03-21T01:23:21.225Z,100.00
2023-03-21T01:25:48.843Z,100.00
2023-03-21T01:28:16.170Z,100.00
2023-03-21T01:30:50.290Z,100.00
2023-03-21T01:33:18.046Z,100.00
2023-03-21T01:35:50.439Z,100.00
2023-03-21T01:38:20.456Z,100.00
2023-03-21T01:40:48.690Z,100.00
2023-03-21T01:43:24.792Z,100.00
2023-03-21T01:46:21.225Z,100.00
2023-03-21T01:49:02.004Z,100.00
2023-03-21T01:51:31.077Z,100.00
2023-03-21T01:53:57.829Z,100.00
2023-03-21T01:56:26.175Z,100.00
2023-03-21T01:58:55.972Z,100.00
2023-03-21T02:01:23.273Z,100.00
2023-03-21T02:03:51.671Z,100.00
2023-03-21T02:06:31.711Z,100.00
2023-03-21T02:09:05.001Z,100.00
2023-03-21T02:11:32.218Z,100.00
2023-03-21T02:14:06.431Z,100.00
2023-03-21T02:16:40.170Z,100.00
2023-03-21T02:19:31.927Z,100.00
2023-03-21T02:22:19.376Z,100.00
2023-03-21T02:25:13.362Z,100.00
2023-03-21T02:27:55.832Z,100.00
2023-03-21T02:30:59.642Z,100.00
2023-03-21T02:33:37.643Z,100.00
2023-03-21T02:36:14.474Z,100.00
2023-03-21T02:38:52.954Z,100.00
2023-03-21T02:41:29.788Z,100.00
2023-03-21T02:44:20.126Z,100.00
2023-03-21T02:47:06.358Z,100.00
2023-03-21T02:49:42.962Z,100.00
2023-03-21T02:52:28.372Z,100.00
2023-03-21T02:55:04.913Z,100.00
2023-03-21T02:57:42.150Z,100.00
2023-03-21T03:00:16.576Z,100.00
2023-03-21T03:02:43.622Z,100.00
2023-03-21T03:05:21.182Z,100.00
2023-03-21T03:07:51.298Z,100.00
2023-03-21T03:10:32.363Z,100.00
2023-03-21T03:13:12.533Z,100.00
2023-03-21T03:16:13.596Z,100.00
2023-03-21T03:19:01.198Z,100.00
2023-03-21T03:21:42.242Z,100.00
2023-03-21T03:24:20.507Z,100.00
2023-03-21T03:27:06.800Z,100.00
2023-03-21T03:29:37.138Z,100.00
2023-03-21T03:32:18.836Z,100.00
2023-03-21T03:34:51.497Z,100.00
2023-03-21T03:37:22.073Z,100.00
2023-03-21T03:40:08.165Z,100.00
2023-03-21T03:42:51.987Z,100.00
2023-03-21T03:45:21.993Z,100.00
2023-03-21T03:48:02.622Z,100.00
2023-03-21T03:51:01.488Z,100.00
2023-03-21T03:53:36.917Z,100.00
2023-03-21T03:56:07.135Z,100.00
2023-03-21T03:58:44.827Z,100.00
2023-03-21T04:01:12.407Z,100.00
2023-03-21T04:03:49.028Z,100.00
2023-03-21T04:06:18.586Z,100.00
2023-03-21T04:08:45.113Z,100.00
2023-03-21T04:11:15.597Z,100.00
2023-03-21T04:13:42.390Z,100.00
2023-03-21T04:16:11.539Z,100.00
2023-03-21T04:18:39.205Z,100.00
2023-03-21T04:21:13.005Z,100.00
2023-03-21T04:23:40.837Z,100.00
2023-03-21T04:26:08.066Z,100.00
2023-03-21T04:28:37.057Z,100.00
2023-03-21T04:31:22.691Z,100.00
2023-03-21T04:33:51.842Z,100.00
2023-03-21T04:36:38.893Z,100.00
2023-03-21T04:39:12.192Z,100.00
2023-03-21T04:41:44.031Z,100.00
2023-03-21T04:44:11.864Z,100.00
2023-03-21T04:46:38.903Z,100.00
2023-03-21T04:49:06.966Z,100.00
2023-03-21T04:51:34.155Z,100.00
2023-03-21T04:54:00.695Z,100.00
2023-03-21T04:56:32.660Z,100.00
2023-03-21T04:59:00.942Z,100.00
2023-03-21T05:01:30.707Z,100.00
2023-03-21T05:03:59.140Z,100.00
2023-03-21T05:06:26.470Z,100.00
2023-03-21T05:08:53.064Z,100.00
2023-03-21T05:11:19.561Z,100.00
2023-03-21T05:13:46.332Z,100.00
2023-03-21T05:16:12.830Z,100.00
2023-03-21T05:18:39.353Z,100.00
2023-03-21T05:21:10.136Z,100.00
2023-03-21T05:23:41.993Z,100.00
2023-03-21T05:26:09.978Z,100.00
2023-03-21T05:28:36.762Z,100.00
2023-03-21T05:31:04.417Z,100.00
2023-03-21T05:33:31.141Z,100.00
2023-03-21T05:35:58.642Z,100.00
2023-03-21T05:38:25.664Z,100.00
2023-03-21T05:40:53.760Z,100.00
2023-03-21T05:43:20.346Z,100.00
2023-03-21T05:45:48.198Z,100.00
2023-03-21T05:48:15.359Z,100.00
2023-03-21T05:50:42.174Z,100.00
2023-03-21T05:53:09.174Z,100.00
2023-03-21T05:55:36.490Z,100.00
2023-03-21T05:58:03.446Z,100.00
2023-03-21T06:00:30.752Z,100.00
2023-03-21T06:02:57.307Z,100.00
2023-03-21T06:05:23.853Z,100.00
2023-03-21T06:07:50.478Z,100.00
2023-03-21T06:10:17.075Z,100.00
2023-03-21T06:12:43.963Z,100.00
2023-03-21T06:15:11.162Z,100.00
2023-03-21T06:17:37.663Z,100.00
2023-03-21T06:20:06.859Z,100.00
2023-03-21T06:22:34.682Z,100.00
2023-03-21T06:25:01.843Z,100.00
2023-03-21T06:27:28.349Z,100.00
2023-03-21T06:29:54.819Z,100.00
2023-03-21T06:32:21.346Z,100.00
2023-03-21T06:34:47.831Z,100.00
2023-03-21T06:37:14.316Z,100.00
2023-03-21T06:39:41.251Z,100.00
2023-03-21T06:42:07.785Z,100.00
2023-03-21T06:44:34.347Z,100.00
2023-03-21T06:47:01.575Z,100.00
2023-03-21T06:49:28.304Z,100.00
2023-03-21T06:51:54.850Z,100.00
2023-03-21T06:54:21.444Z,100.00
2023-03-21T06:56:47.899Z,100.00
2023-03-21T06:59:14.649Z,100.00
2023-03-21T07:01:42.900Z,100.00
2023-03-21T07:04:10.198Z,100.00
2023-03-21T07:06:37.182Z,100.00
2023-03-21T07:09:05.483Z,100.00
2023-03-21T07:11:32.554Z,100.00
2023-03-21T07:13:59.046Z,100.00
2023-03-21T07:16:25.872Z,100.00
2023-03-21T07:18:52.396Z,100.00
2023-03-21T07:21:18.880Z,100.00
2023-03-21T07:23:45.359Z,100.00
2023-03-21T07:26:11.936Z,100.00
2023-03-21T07:28:38.427Z,100.00
2023-03-21T07:31:06.598Z,100.00
2023-03-21T07:33:33.471Z,100.00
2023-03-21T07:36:00.769Z,100.00
2023-03-21T07:38:27.652Z,100.00
2023-03-21T07:40:54.156Z,100.00
2023-03-21T07:43:20.696Z,100.00
2023-03-21T07:45:47.576Z,100.00
2023-03-21T07:48:14.949Z,100.00
2023-03-21T07:50:41.601Z,100.00
2023-03-21T07:53:08.072Z,100.00
2023-03-21T07:55:35.119Z,100.00
2023-03-21T07:58:03.444Z,100.00
2023-03-21T08:00:30.417Z,100.00
2023-03-21T08:02:59.032Z,100.00
2023-03-21T08:05:37.313Z,100.00
2023-03-21T08:08:05.190Z,100.00
2023-03-21T08:10:32.877Z,100.00
2023-03-21T08:12:59.337Z,100.00
2023-03-21T08:15:25.994Z,100.00
2023-03-21T08:17:52.624Z,100.00
2023-03-21T08:20:21.759Z,100.00
2023-03-21T08:22:49.321Z,100.00
2023-03-21T08:25:17.972Z,100.00
2023-03-21T08:27:45.658Z,100.00
2023-03-21T08:30:14.393Z,100.00
2023-03-21T08:32:42.145Z,100.00
2023-03-21T08:35:40.929Z,100.00
2023-03-21T08:50:10.671Z,100.00
2023-03-21T08:52:37.221Z,100.00
2023-03-21T08:55:04.210Z,100.00
2023-03-21T08:57:30.834Z,100.00
2023-03-21T08:59:57.346Z,100.00
2023-03-21T09:02:23.830Z,100.00
2023-03-21T09:04:54.700Z,100.00
2023-03-21T09:07:22.076Z,100.00
2023-03-21T09:09:58.137Z,100.00
2023-03-21T09:12:29.582Z,100.00
2023-03-21T09:14:56.140Z,100.00
2023-03-21T09:17:22.687Z,100.00
2023-03-21T09:19:50.730Z,100.00
2023-03-21T09:22:21.267Z,100.00
2023-03-21T09:24:48.694Z,100.00
2023-03-21T09:27:25.306Z,100.00
2023-03-21T09:29:52.275Z,100.00
2023-03-21T09:32:19.141Z,100.00
2023-03-21T09:34:45.931Z,100.00
2023-03-21T09:37:13.651Z,100.00
2023-03-21T09:39:41.169Z,100.00
2023-03-21T09:42:42.365Z,100.00
2023-03-21T09:45:39.953Z,100.00
2023-03-21T09:48:22.351Z,100.00
2023-03-21T09:50:49.103Z,100.00
2023-03-21T09:53:30.933Z,100.00
2023-03-21T09:55:57.559Z,100.00
2023-03-21T09:58:40.375Z,100.00
2023-03-21T10:01:22.249Z,100.00
2023-03-21T10:03:53.681Z,100.00
2023-03-21T10:06:30.370Z,100.00
2023-03-21T10:09:07.319Z,100.00
2023-03-21T10:11:50.650Z,99.69
2023-03-21T10:14:26.237Z,99.96
2023-03-21T10:16:57.964Z,99.41
2023-03-21T10:19:24.808Z,98.54
2023-03-21T10:22:00.750Z,98.67
2023-03-21T10:24:33.159Z,97.48
2023-03-21T10:27:01.666Z,97.83
2023-03-21T10:29:33.037Z,97.19
2023-03-21T10:32:00.760Z,96.94
2023-03-21T10:34:37.975Z,96.72
2023-03-21T10:37:06.427Z,95.82
2023-03-21T10:39:38.373Z,94.84
2023-03-21T10:42:04.968Z,94.69
2023-03-21T10:44:33.808Z,95.27
2023-03-21T10:47:07.483Z,95.06
2023-03-21T10:50:05.772Z,93.18
2023-03-21T10:52:28.616Z,92.46
2023-03-21T10:55:22.010Z,92.09
2023-03-21T10:57:53.063Z,90.57
2023-03-21T11:00:23.893Z,90.46
2023-03-21T11:02:53.113Z,89.73
2023-03-21T11:05:34.684Z,90.35
2023-03-21T11:08:13.860Z,91.21
2023-03-21T11:10:52.273Z,89.73
2023-03-21T11:13:24.953Z,89.49
2023-03-21T11:15:58.401Z,90.45
2023-03-21T11:18:27.129Z,89.86
2023-03-21T11:20:58.968Z,89.13
2023-03-21T11:23:28.839Z,89.06
2023-03-21T11:25:55.973Z,89.03
2023-03-21T11:28:25.394Z,88.70
2023-03-21T11:30:57.298Z,88.74
2023-03-21T11:33:27.884Z,87.35
2023-03-21T11:36:02.748Z,86.62
2023-03-21T11:38:33.315Z,85.73
2023-03-21T11:41:01.899Z,85.91
2023-03-21T11:43:31.970Z,85.63
2023-03-21T11:46:04.707Z,86.05
2023-03-21T11:48:36.750Z,85.68
2023-03-21T11:51:12.505Z,85.84
2023-03-21T11:53:56.637Z,84.89
2023-03-21T11:56:27.523Z,84.95
2023-03-21T11:59:19.158Z,85.84
2023-03-21T12:02:13.296Z,85.25
2023-03-21T12:04:57.004Z,85.65
2023-03-21T12:07:42.175Z,85.36
2023-03-21T12:10:26.245Z,85.90
2023-03-21T12:13:09.085Z,86.48
2023-03-21T12:15:47.749Z,85.36
2023-03-21T12:18:14.135Z,86.55
2023-03-21T12:20:50.321Z,86.24
2023-03-21T12:23:41.069Z,85.04
2023-03-21T12:26:29.930Z,86.54
2023-03-21T12:29:40.153Z,85.68
2023-03-21T12:32:09.606Z,86.56
2023-03-21T12:35:00.773Z,86.22
2023-03-21T12:37:57.792Z,86.21
2023-03-21T12:40:40.265Z,84.92
2023-03-21T12:43:21.423Z,84.98
2023-03-21T12:45:54.749Z,85.47
2023-03-21T12:48:30.636Z,85.35
2023-03-21T12:51:01.021Z,83.18
2023-03-21T12:53:34.484Z,82.51
2023-03-21T12:56:03.060Z,81.18
2023-03-21T12:58:33.976Z,81.24
2023-03-21T13:01:04.549Z,79.34
2023-03-21T13:03:40.619Z,80.64
2023-03-21T13:06:11.592Z,78.38
2023-03-21T13:08:52.757Z,78.19
2023-03-21T13:11:26.249Z,76.89
2023-03-21T13:14:12.393Z,77.81
2023-03-21T13:16:52.682Z,77.02
2023-03-21T13:19:38.864Z,75.74
2023-03-21T13:22:26.913Z,74.72
2023-03-21T13:24:59.493Z,73.30
2023-03-21T13:27:29.462Z,70.94
2023-03-21T13:30:14.432Z,73.21
2023-03-21T13:32:43.603Z,72.07
2023-03-21T13:35:27.711Z,72.63
2023-03-21T13:37:59.358Z,72.86
2023-03-21T13:40:34.895Z,71.06
2023-03-21T13:43:03.773Z,70.86
2023-03-21T13:45:46.196Z,70.45
2023-03-21T13:48:30.936Z,70.39
2023-03-21T13:51:02.156Z,70.78
2023-03-21T13:53:40.340Z,70.94
2023-03-21T13:56:15.969Z,71.03
2023-03-21T13:58:45.799Z,70.42
2023-03-21T14:01:30.717Z,71.09
2023-03-21T14:04:14.316Z,71.23
2023-03-21T14:06:57.704Z,71.95
2023-03-21T14:09:36.290Z,71.36
2023-03-21T14:12:07.814Z,71.77
2023-03-21T14:14:42.000Z,71.74
2023-03-21T14:17:34.920Z,72.31
2023-03-21T14:20:33.933Z,72.02
2023-03-21T14:23:00.904Z,71.83
2023-03-21T14:25:40.960Z,72.58
2023-03-21T14:28:20.799Z,73.63
2023-03-21T14:30:53.842Z,73.03
2023-03-21T14:33:31.765Z,73.23
2023-03-21T14:36:00.045Z,73.40
2023-03-21T14:38:32.976Z,72.51
2023-03-21T14:40:59.469Z,72.47
2023-03-21T14:43:26.748Z,72.44
2023-03-21T14:45:56.538Z,73.01
2023-03-21T14:48:35.196Z,74.43
2023-03-21T14:51:05.957Z,73.62
2023-03-21T14:53:36.913Z,73.16
2023-03-21T14:56:27.892Z,74.22
2023-03-21T14:58:54.899Z,75.34
2023-03-21T15:01:31.111Z,74.58
2023-03-21T15:04:00.544Z,74.74
2023-03-21T15:06:27.435Z,74.84
2023-03-21T15:09:05.032Z,74.58
2023-03-21T15:11:34.174Z,75.35
2023-03-21T15:14:06.582Z,74.58
2023-03-21T15:16:34.256Z,75.52
2023-03-21T15:19:02.062Z,75.06
2023-03-21T15:21:36.103Z,75.61
2023-03-21T15:24:27.610Z,75.99
2023-03-21T15:27:00.894Z,76.58
2023-03-21T15:29:28.024Z,76.59
2023-03-21T15:31:55.905Z,76.98
2023-03-21T15:34:30.664Z,77.42
2023-03-21T15:37:09.078Z,78.07
2023-03-21T15:39:38.314Z,78.37
2023-03-21T15:42:22.389Z,78.08
2023-03-21T15:44:53.096Z,77.45
2023-03-21T15:47:50.008Z,77.35
2023-03-21T15:50:41.569Z,78.39
2023-03-21T15:53:15.594Z,78.44
2023-03-21T15:55:49.888Z,78.21
2023-03-21T15:58:23.911Z,78.55
2023-03-21T16:00:55.911Z,79.35
2023-03-21T16:03:22.646Z,79.32
2023-03-21T16:06:21.686Z,79.61
2023-03-21T16:09:06.405Z,80.01
2023-03-21T16:11:49.665Z,80.41
2023-03-21T16:14:17.542Z,81.17
2023-03-21T16:16:45.816Z,81.56
2023-03-21T16:19:12.866Z,81.73
2023-03-21T16:21:39.522Z,81.68
2023-03-21T16:24:07.496Z,82.14
2023-03-21T16:26:43.455Z,82.26
2023-03-21T16:29:12.155Z,83.44
2023-03-21T16:31:38.747Z,85.44
2023-03-21T16:34:05.761Z,86.60
2023-03-21T16:36:36.972Z,88.50
2023-03-21T16:39:16.647Z,90.56
2023-03-21T16:41:52.194Z,93.88
2023-03-21T16:44:20.063Z,94.93
2023-03-21T16:46:47.369Z,96.00
2023-03-21T16:49:19.941Z,95.46
2023-03-21T16:51:47.074Z,96.09
2023-03-21T16:54:14.157Z,96.26
2023-03-21T16:56:54.032Z,96.17
2023-03-21T16:59:21.430Z,95.63
2023-03-21T17:01:49.185Z,96.20
2023-03-21T17:04:17.700Z,96.08
2023-03-21T17:06:50.450Z,95.42
2023-03-21T17:09:21.331Z,95.06
2023-03-21T17:11:48.126Z,95.06
2023-03-21T17:14:22.467Z,95.81
2023-03-21T17:16:49.778Z,95.38
2023-03-21T17:19:24.049Z,95.80
2023-03-21T17:21:51.907Z,95.94
2023-03-21T17:24:18.922Z,96.39
2023-03-21T17:26:47.183Z,95.51
2023-03-21T17:29:15.195Z,96.52
2023-03-21T17:31:42.931Z,96.22
2023-03-21T17:34:11.298Z,96.39
2023-03-21T17:36:41.548Z,97.40
2023-03-21T17:39:14.806Z,97.30
2023-03-21T17:41:41.444Z,97.98
2023-03-21T17:44:07.912Z,97.55
2023-03-21T17:46:39.276Z,98.55
2023-03-21T17:49:06.421Z,98.01
2023-03-21T17:51:33.214Z,97.86
2023-03-21T17:54:00.644Z,98.09
2023-03-21T17:56:32.665Z,97.95
2023-03-21T17:59:03.897Z,98.00
2023-03-21T18:01:32.036Z,97.76
2023-03-21T18:04:02.100Z,97.10
2023-03-21T18:06:28.644Z,97.40
2023-03-21T18:08:57.579Z,97.88
2023-03-21T18:11:26.515Z,98.02
2023-03-21T18:14:03.596Z,97.60
2023-03-21T18:16:36.650Z,98.56
2023-03-21T18:19:03.553Z,98.17
2023-03-21T18:21:32.908Z,97.89
2023-03-21T18:23:59.487Z,98.45
2023-03-21T18:26:26.020Z,98.90
2023-03-21T18:29:36.581Z,98.60
2023-03-21T18:31:38.855Z,99.10
2023-03-21T18:34:05.347Z,99.53
2023-03-21T18:36:32.092Z,99.53
2023-03-21T18:38:58.842Z,99.17
2023-03-21T18:41:25.943Z,99.71
2023-03-21T18:44:05.887Z,99.39
2023-03-21T18:46:46.979Z,99.97
2023-03-21T18:52:04.736Z,99.40
2023-03-21T18:54:31.588Z,99.43
2023-03-21T18:57:31.752Z,99.85
2023-03-21T18:59:44.879Z,100.00
2023-03-21T19:02:14.120Z,99.86
2023-03-21T19:04:41.209Z,100.00
2023-03-21T19:07:08.520Z,100.00
2023-03-21T19:09:58.193Z,100.00
2023-03-21T19:12:23.598Z,99.71
2023-03-21T19:14:50.602Z,99.88
2023-03-21T19:18:07.803Z,100.00
2023-03-21T19:20:05.578Z,100.00
2023-03-21T19:22:36.698Z,100.00
2023-03-21T19:25:05.630Z,100.00
2023-03-21T19:27:34.610Z,100.00
2023-03-21T19:30:13.837Z,100.00
2023-03-21T19:32:41.420Z,100.00
2023-03-21T19:35:08.755Z,100.00
2023-03-21T19:37:36.294Z,100.00
2023-03-21T19:40:05.343Z,100.00
2023-03-21T19:42:32.497Z,100.00
2023-03-21T19:44:59.191Z,100.00
2023-03-21T19:47:26.252Z,100.00
2023-03-21T19:52:40.728Z,100.00
2023-03-21T19:55:08.139Z,100.00
2023-03-21T19:57:35.451Z,100.00
2023-03-21T20:00:02.640Z,100.00
2023-03-21T20:02:37.148Z,100.00
2023-03-21T20:05:07.010Z,100.00
2023-03-21T20:07:34.001Z,100.00
2023-03-21T20:10:01.079Z,100.00
2023-03-21T20:12:28.733Z,100.00
2023-03-21T20:15:10.323Z,100.00
2023-03-21T20:17:43.274Z,100.00
2023-03-21T20:20:13.717Z,100.00
2023-03-21T20:25:28.336Z,100.00
2023-03-21T20:28:12.910Z,100.00
2023-03-21T20:30:50.404Z,100.00
2023-03-21T20:33:17.698Z,100.00
2023-03-21T20:36:35.651Z,100.00
2023-03-21T20:38:33.660Z,100.00
2023-03-21T20:41:01.770Z,100.00
2023-03-21T20:44:18.282Z,100.00
2023-03-21T20:46:16.575Z,100.00
2023-03-21T20:48:43.259Z,100.00
2023-03-21T20:53:58.818Z,100.00
2023-03-21T20:56:25.805Z,100.00
2023-03-21T20:59:14.642Z,100.00
2023-03-21T21:01:45.582Z,100.00
2023-03-21T21:04:19.451Z,100.00
2023-03-21T21:06:50.817Z,100.00
2023-03-21T21:09:17.844Z,100.00
2023-03-21T21:14:31.155Z,100.00
2023-03-21T21:16:58.936Z,100.00
2023-03-21T21:19:28.126Z,100.00
2023-03-21T21:21:54.641Z,100.00
2023-03-21T21:24:21.612Z,100.00
2023-03-21T21:26:48.641Z,100.00
2023-03-21T21:29:17.199Z,100.00
2023-03-21T21:31:52.075Z,100.00
2023-03-21T21:34:19.830Z,100.00
2023-03-21T21:36:46.603Z,100.00
2023-03-21T21:39:16.945Z,100.00
2023-03-21T21:41:43.527Z,100.00
2023-03-21T21:44:10.946Z,100.00
2023-03-21T21:46:38.111Z,100.00
2023-03-21T21:49:05.363Z,100.00
2023-03-21T21:51:34.034Z,100.00
2023-03-21T21:54:03.826Z,100.00
2023-03-21T21:56:32.497Z,100.00
2023-03-21T21:59:03.174Z,100.00
2023-03-21T22:01:31.449Z,100.00
2023-03-21T22:04:06.010Z,100.00
2023-03-21T22:06:35.108Z,100.00
2023-03-21T22:09:04.770Z,100.00
2023-03-21T22:11:31.829Z,100.00
2023-03-21T22:13:59.896Z,99.96
2023-03-21T22:16:26.618Z,99.59
2023-03-21T22:18:53.194Z,99.16
2023-03-21T22:21:19.993Z,99.36
2023-03-21T22:23:46.684Z,98.45
2023-03-21T22:26:13.349Z,98.72
2023-03-21T22:28:42.164Z,97.79
2023-03-21T22:31:11.694Z,97.76
2023-03-21T22:34:05.508Z,96.50
2023-03-21T22:36:40.550Z,96.61
2023-03-21T22:39:18.756Z,96.54
2023-03-21T22:42:24.056Z,96.02
2023-03-21T22:45:05.664Z,96.27
2023-03-21T22:48:03.996Z,96.17
2023-03-21T22:50:46.688Z,95.95
2023-03-21T22:53:57.431Z,96.05
2023-03-21T23:03:36.332Z,95.48
2023-03-21T23:06:15.941Z,95.73
2023-03-21T23:09:07.986Z,95.98
2023-03-21T23:12:01.811Z,95.58
2023-03-21T23:14:50.506Z,95.52
2023-03-21T23:17:43.289Z,95.76
2023-03-21T23:20:56.906Z,96.37
2023-03-21T23:23:55.691Z,96.76
2023-03-21T23:26:33.123Z,96.98
2023-03-21T23:29:09.873Z,96.89
2023-03-21T23:31:43.817Z,96.72
2023-03-21T23:34:27.058Z,96.70
2023-03-21T23:40:04.648Z,96.66
2023-03-21T23:42:48.169Z,96.67
2023-03-21T23:45:37.532Z,96.68
2023-03-21T23:48:29.356Z,96.41
2023-03-21T23:51:17.407Z,95.85
2023-03-21T23:54:08.509Z,95.95
2023-03-21T23:56:52.747Z,95.58
2023-03-21T23:59:38.387Z,95.58
